createdAt,value
2023-04-03T00:00:19.140Z,2.27
2023-04-03T00:01:42.294Z,2.24
2023-04-03T00:02:45.857Z,2.23
2023-04-03T00:03:48.972Z,2.19
2023-04-03T00:04:52.354Z,2.18
2023-04-03T00:05:55.773Z,2.17
2023-04-03T00:06:58.706Z,2.15
2023-04-03T00:08:03.588Z,2.13
2023-04-03T00:09:08.704Z,2.11
2023-04-03T00:10:13.476Z,2.10
2023-04-03T00:11:16.716Z,2.08
2023-04-03T00:12:19.557Z,2.08
2023-04-03T00:13:22.761Z,2.05
2023-04-03T00:14:25.687Z,2.05
2023-04-03T00:15:28.748Z,2.04
2023-04-03T00:16:31.832Z,2.00
2023-04-03T00:17:34.820Z,2.01
2023-04-03T00:18:39.140Z,1.99
2023-04-03T00:19:42.031Z,1.94
2023-04-03T00:20:44.952Z,1.92
2023-04-03T00:21:47.802Z,1.91
2023-04-03T00:22:50.651Z,1.90
2023-04-03T00:23:53.595Z,1.88
2023-04-03T00:24:56.744Z,1.89
2023-04-03T00:25:59.620Z,1.84
2023-04-03T00:27:02.491Z,1.82
2023-04-03T00:28:05.965Z,1.80
2023-04-03T00:29:08.852Z,1.78
2023-04-03T00:30:15.501Z,1.78
2023-04-03T00:31:18.521Z,1.75
2023-04-03T00:32:21.424Z,1.73
2023-04-03T00:33:25.612Z,1.72
2023-04-03T00:34:29.040Z,1.67
2023-04-03T00:35:32.162Z,1.67
2023-04-03T00:36:35.409Z,1.64
2023-04-03T00:37:38.419Z,1.61
2023-04-03T00:38:41.455Z,1.60
2023-04-03T00:39:44.324Z,1.57
2023-04-03T00:40:49.640Z,1.59
2023-04-03T00:41:52.670Z,1.58
2023-04-03T00:43:00.545Z,1.56
2023-04-03T00:44:34.462Z,1.54
2023-04-03T00:45:40.344Z,1.52
2023-04-03T00:46:43.332Z,1.51
2023-04-03T00:47:46.977Z,1.46
2023-04-03T00:48:50.557Z,1.45
2023-04-03T00:49:54.901Z,1.43
2023-04-03T00:50:58.497Z,1.41
2023-04-03T00:52:01.621Z,1.39
2023-04-03T00:53:07.350Z,1.37
2023-04-03T00:54:10.924Z,1.35
2023-04-03T00:55:15.385Z,1.34
2023-04-03T00:56:22.878Z,1.35
2023-04-03T00:57:26.187Z,1.32
2023-04-03T00:58:41.027Z,1.30
2023-04-03T00:59:47.914Z,1.30
2023-04-03T01:00:58.590Z,1.30
2023-04-03T01:02:01.886Z,1.26
2023-04-03T01:03:05.473Z,1.23
2023-04-03T01:04:37.991Z,1.22
2023-04-03T01:05:41.669Z,1.23
2023-04-03T01:06:44.847Z,1.20
2023-04-03T01:07:50.591Z,1.20
2023-04-03T01:08:54.384Z,1.18
2023-04-03T01:10:00.791Z,1.14
2023-04-03T01:11:03.786Z,1.16
2023-04-03T01:12:19.638Z,1.15
2023-04-03T01:13:29.134Z,1.14
2023-04-03T01:14:32.089Z,1.13
2023-04-03T01:15:36.159Z,1.11
2023-04-03T01:16:39.647Z,1.09
2023-04-03T01:17:54.879Z,1.07
2023-04-03T01:18:58.758Z,1.05
2023-04-03T01:20:32.521Z,1.04
2023-04-03T01:22:03.994Z,1.00
2023-04-03T01:23:09.885Z,0.98
2023-04-03T01:24:18.626Z,0.93
2023-04-03T01:25:21.998Z,0.94
2023-04-03T01:26:26.659Z,0.90
2023-04-03T01:27:29.511Z,0.87
2023-04-03T01:28:36.334Z,0.87
2023-04-03T01:29:41.187Z,0.88
2023-04-03T01:30:46.856Z,0.86
2023-04-03T01:31:53.169Z,0.86
2023-04-03T01:32:56.217Z,0.85
2023-04-03T01:33:59.592Z,0.86
2023-04-03T01:35:03.292Z,0.82
2023-04-03T01:36:07.373Z,0.82
2023-04-03T01:37:10.979Z,0.81
2023-04-03T01:38:13.935Z,0.82
2023-04-03T01:39:16.837Z,0.81
2023-04-03T01:40:20.153Z,0.78
2023-04-03T01:41:23.672Z,0.78
2023-04-03T01:42:27.547Z,0.79
2023-04-03T01:43:30.498Z,0.77
2023-04-03T01:44:33.518Z,0.75
2023-04-03T01:45:36.732Z,0.72
2023-04-03T01:46:39.844Z,0.72
2023-04-03T01:47:42.844Z,0.73
2023-04-03T01:48:46.003Z,0.70
2023-04-03T01:49:49.088Z,0.69
2023-04-03T01:50:52.046Z,0.70
2023-04-03T01:51:55.279Z,0.65
2023-04-03T01:52:58.382Z,0.65
2023-04-03T01:54:01.426Z,0.62
2023-04-03T01:55:04.630Z,0.62
2023-04-03T01:56:08.016Z,0.61
2023-04-03T01:57:11.512Z,0.60
2023-04-03T01:58:14.538Z,0.61
2023-04-03T01:59:18.917Z,0.63
2023-04-03T02:00:21.873Z,0.62
2023-04-03T02:01:24.961Z,0.58
2023-04-03T02:02:27.895Z,0.57
2023-04-03T02:03:32.031Z,0.57
2023-04-03T02:04:35.449Z,0.55
2023-04-03T02:05:39.014Z,0.54
2023-04-03T02:06:42.335Z,0.53
2023-04-03T02:07:45.672Z,0.54
2023-04-03T02:08:48.585Z,0.53
2023-04-03T02:09:52.208Z,0.54
2023-04-03T02:10:55.293Z,0.52
2023-04-03T02:11:58.188Z,0.51
2023-04-03T02:13:01.144Z,0.52
2023-04-03T02:14:04.074Z,0.48
2023-04-03T02:15:07.396Z,0.47
2023-04-03T02:16:12.386Z,0.47
2023-04-03T02:17:16.099Z,0.48
2023-04-03T02:18:19.151Z,0.47
2023-04-03T02:19:22.061Z,0.47
2023-04-03T02:20:25.134Z,0.45
2023-04-03T02:21:28.906Z,0.42
2023-04-03T02:22:32.150Z,0.43
2023-04-03T02:23:37.643Z,0.40
2023-04-03T02:24:41.411Z,0.39
2023-04-03T02:25:44.266Z,0.38
2023-04-03T02:26:47.159Z,0.40
2023-04-03T02:27:50.110Z,0.38
2023-04-03T02:28:53.107Z,0.37
2023-04-03T02:29:56.063Z,0.37
2023-04-03T02:30:59.130Z,0.36
2023-04-03T02:32:02.268Z,0.35
2023-04-03T02:33:05.735Z,0.35
2023-04-03T02:34:08.634Z,0.34
2023-04-03T02:35:12.906Z,0.33
2023-04-03T02:36:16.711Z,0.34
2023-04-03T02:37:22.286Z,0.31
2023-04-03T02:38:26.719Z,0.30
2023-04-03T02:39:29.962Z,0.29
2023-04-03T02:40:33.169Z,0.30
2023-04-03T02:41:36.618Z,0.27
2023-04-03T02:42:41.670Z,0.29
2023-04-03T02:43:44.582Z,0.27
2023-04-03T02:44:47.661Z,0.27
2023-04-03T02:45:50.518Z,0.27
2023-04-03T02:46:53.412Z,0.24
2023-04-03T02:47:56.377Z,0.24
2023-04-03T02:48:59.914Z,0.23
2023-04-03T02:50:03.048Z,0.23
2023-04-03T02:51:08.245Z,0.22
2023-04-03T02:52:11.341Z,0.21
2023-04-03T02:53:14.570Z,0.21
2023-04-03T02:54:17.456Z,0.19
2023-04-03T02:55:24.281Z,0.20
2023-04-03T02:56:28.244Z,0.17
2023-04-03T02:57:31.506Z,0.18
2023-04-03T02:58:37.622Z,0.21
2023-04-03T02:59:45.376Z,0.19
2023-04-03T03:00:49.130Z,0.17
2023-04-03T03:01:52.089Z,0.15
2023-04-03T03:02:55.165Z,0.15
2023-04-03T03:03:59.201Z,0.17
2023-04-03T03:05:02.534Z,0.14
2023-04-03T03:06:11.896Z,0.13
2023-04-03T03:07:16.370Z,0.10
2023-04-03T03:08:21.320Z,0.12
2023-04-03T03:09:24.528Z,0.11
2023-04-03T03:10:27.416Z,0.07
2023-04-03T03:11:31.310Z,0.05
2023-04-03T03:12:34.309Z,0.07
2023-04-03T03:13:38.070Z,0.06
2023-04-03T03:14:41.658Z,0.05
2023-04-03T03:15:45.273Z,0.02
2023-04-03T03:16:48.230Z,0.01
2023-04-03T03:17:51.441Z,0.02
2023-04-03T03:18:54.383Z,0.00
2023-04-03T03:19:57.343Z,0.02
2023-04-03T03:21:01.558Z,-0.04
2023-04-03T03:22:04.463Z,-0.04
2023-04-03T03:23:07.362Z,-0.06
2023-04-03T03:24:10.493Z,-0.06
2023-04-03T03:25:13.397Z,-0.09
2023-04-03T03:26:16.590Z,-0.10
2023-04-03T03:27:19.513Z,-0.11
2023-04-03T03:28:22.449Z,-0.12
2023-04-03T03:29:25.696Z,-0.12
2023-04-03T03:30:28.703Z,-0.10
2023-04-03T03:31:31.661Z,-0.13
2023-04-03T03:32:35.080Z,-0.14
2023-04-03T03:33:38.344Z,-0.14
2023-04-03T03:34:41.482Z,-0.12
2023-04-03T03:35:45.057Z,-0.13
2023-04-03T03:36:48.141Z,-0.15
2023-04-03T03:37:51.328Z,-0.17
2023-04-03T03:38:54.276Z,-0.16
2023-04-03T03:39:57.538Z,-0.17
2023-04-03T03:41:00.776Z,-0.19
2023-04-03T03:42:04.447Z,-0.21
2023-04-03T03:43:07.464Z,-0.20
2023-04-03T03:44:10.694Z,-0.23
2023-04-03T03:45:14.122Z,-0.24
2023-04-03T03:46:18.016Z,-0.24
2023-04-03T03:47:21.367Z,-0.24
2023-04-03T03:48:24.676Z,-0.24
2023-04-03T03:49:27.684Z,-0.22
2023-04-03T03:50:31.008Z,-0.24
2023-04-03T03:51:33.978Z,-0.24
2023-04-03T03:52:36.948Z,-0.26
2023-04-03T03:53:39.844Z,-0.23
2023-04-03T03:54:44.101Z,-0.23
2023-04-03T03:55:47.368Z,-0.24
2023-04-03T03:56:50.486Z,-0.27
2023-04-03T03:57:53.506Z,-0.28
2023-04-03T03:58:57.272Z,-0.28
2023-04-03T04:00:00.493Z,-0.28
2023-04-03T04:01:07.866Z,-0.29
2023-04-03T04:02:15.715Z,-0.27
2023-04-03T04:03:19.095Z,-0.29
2023-04-03T04:04:23.150Z,-0.28
2023-04-03T04:05:26.798Z,-0.30
2023-04-03T04:06:30.220Z,-0.29
2023-04-03T04:07:36.084Z,-0.32
2023-04-03T04:08:39.508Z,-0.32
2023-04-03T04:09:43.126Z,-0.33
2023-04-03T04:10:46.134Z,-0.33
2023-04-03T04:11:50.661Z,-0.34
2023-04-03T04:12:57.412Z,-0.33
2023-04-03T04:14:02.126Z,-0.33
2023-04-03T04:15:06.289Z,-0.35
2023-04-03T04:16:10.916Z,-0.35
2023-04-03T04:17:15.710Z,-0.36
2023-04-03T04:18:19.049Z,-0.38
2023-04-03T04:19:22.831Z,-0.39
2023-04-03T04:20:25.915Z,-0.38
2023-04-03T04:21:29.542Z,-0.38
2023-04-03T04:22:33.056Z,-0.39
2023-04-03T04:23:36.066Z,-0.38
2023-04-03T04:24:39.984Z,-0.38
2023-04-03T04:25:48.057Z,-0.41
2023-04-03T04:26:51.404Z,-0.41
2023-04-03T04:27:54.363Z,-0.43
2023-04-03T04:28:57.351Z,-0.40
2023-04-03T04:30:00.430Z,-0.41
2023-04-03T04:31:03.747Z,-0.43
2023-04-03T04:32:07.444Z,-0.44
2023-04-03T04:33:11.226Z,-0.44
2023-04-03T04:34:15.209Z,-0.42
2023-04-03T04:35:18.904Z,-0.44
2023-04-03T04:36:23.556Z,-0.44
2023-04-03T04:37:26.531Z,-0.44
2023-04-03T04:38:29.922Z,-0.45
2023-04-03T04:39:33.426Z,-0.45
2023-04-03T04:40:36.842Z,-0.42
2023-04-03T04:41:40.290Z,-0.44
2023-04-03T04:42:43.299Z,-0.43
2023-04-03T04:43:46.542Z,-0.44
2023-04-03T04:44:49.445Z,-0.40
2023-04-03T04:46:08.659Z,-0.42
2023-04-03T04:47:15.697Z,-0.36
2023-04-03T04:48:18.874Z,-0.38
2023-04-03T04:49:22.671Z,-0.37
2023-04-03T04:50:26.006Z,-0.38
2023-04-03T04:51:35.153Z,-0.37
2023-04-03T04:52:44.819Z,-0.35
2023-04-03T04:53:47.762Z,-0.36
2023-04-03T04:54:52.423Z,-0.34
2023-04-03T04:55:56.140Z,-0.35
2023-04-03T04:56:59.407Z,-0.33
2023-04-03T04:58:02.885Z,-0.31
2023-04-03T04:59:06.747Z,-0.31
2023-04-03T05:00:10.647Z,-0.29
2023-04-03T05:01:14.370Z,-0.28
2023-04-03T05:02:26.338Z,-0.27
2023-04-03T05:03:30.310Z,-0.25
2023-04-03T05:04:34.357Z,-0.24
2023-04-03T05:05:42.028Z,-0.20
2023-04-03T05:06:44.923Z,-0.19
2023-04-03T05:08:02.400Z,-0.18
2023-04-03T05:09:06.215Z,-0.20
2023-04-03T05:10:10.618Z,-0.21
2023-04-03T05:11:14.030Z,-0.21
2023-04-03T05:12:18.816Z,-0.19
2023-04-03T05:13:26.494Z,-0.15
2023-04-03T05:14:30.242Z,-0.16
2023-04-03T05:15:40.794Z,-0.14
2023-04-03T05:16:44.533Z,-0.10
2023-04-03T05:17:48.180Z,-0.07
2023-04-03T05:18:51.295Z,-0.05
2023-04-03T05:19:55.980Z,-0.01
2023-04-03T05:20:59.783Z,-0.00
2023-04-03T05:22:03.595Z,0.01
2023-04-03T05:23:06.838Z,0.04
2023-04-03T05:24:10.777Z,0.09
2023-04-03T05:25:16.074Z,0.12
2023-04-03T05:26:20.974Z,0.14
2023-04-03T05:27:25.274Z,0.18
2023-04-03T05:28:30.329Z,0.23
2023-04-03T05:29:33.386Z,0.24
2023-04-03T05:30:36.515Z,0.28
2023-04-03T05:31:39.578Z,0.29
2023-04-03T05:32:43.997Z,0.32
2023-04-03T05:33:54.419Z,0.38
2023-04-03T05:34:59.459Z,0.38
2023-04-03T05:36:06.524Z,0.45
2023-04-03T05:37:11.226Z,0.47
2023-04-03T05:38:14.764Z,0.52
2023-04-03T05:39:17.890Z,0.52
2023-04-03T05:40:21.608Z,0.54
2023-04-03T05:41:26.003Z,0.55
2023-04-03T05:42:28.907Z,0.60
2023-04-03T05:43:31.800Z,0.63
2023-04-03T05:44:34.831Z,0.65
2023-04-03T05:45:38.615Z,0.68
2023-04-03T05:46:42.506Z,0.71
2023-04-03T05:47:45.857Z,0.75
2023-04-03T05:48:49.439Z,0.78
2023-04-03T05:49:54.600Z,0.81
2023-04-03T05:50:57.641Z,0.86
2023-04-03T05:52:02.478Z,0.95
2023-04-03T05:53:06.986Z,1.05
2023-04-03T05:54:19.049Z,1.14
2023-04-03T05:55:22.435Z,1.24
2023-04-03T05:56:26.599Z,1.32
2023-04-03T05:57:29.734Z,1.43
2023-04-03T05:58:32.630Z,1.51
2023-04-03T05:59:35.450Z,1.58
2023-04-03T06:00:38.532Z,1.64
2023-04-03T06:01:41.646Z,1.69
2023-04-03T06:02:44.892Z,1.76
2023-04-03T06:03:53.086Z,1.94
2023-04-03T06:04:56.440Z,2.13
2023-04-03T06:05:59.403Z,2.36
2023-04-03T06:07:02.355Z,2.52
2023-04-03T06:08:05.339Z,2.74
2023-04-03T06:09:09.455Z,2.82
2023-04-03T06:10:13.832Z,2.81
2023-04-03T06:11:17.486Z,2.79
2023-04-03T06:12:21.112Z,2.75
2023-04-03T06:13:24.873Z,2.66
2023-04-03T06:14:28.434Z,2.56
2023-04-03T06:15:31.562Z,2.52
2023-04-03T06:16:35.396Z,2.56
2023-04-03T06:17:40.003Z,2.71
2023-04-03T06:18:44.794Z,2.87
2023-04-03T06:19:48.586Z,3.04
2023-04-03T06:20:51.971Z,3.24
2023-04-03T06:21:55.271Z,3.25
2023-04-03T06:23:00.033Z,3.29
2023-04-03T06:24:06.475Z,3.41
2023-04-03T06:25:10.505Z,3.44
2023-04-03T06:26:13.387Z,3.41
2023-04-03T06:27:16.702Z,3.39
2023-04-03T06:28:20.381Z,3.37
2023-04-03T06:29:23.808Z,3.34
2023-04-03T06:30:26.762Z,3.48
2023-04-03T06:31:29.755Z,3.71
2023-04-03T06:32:32.723Z,3.87
2023-04-03T06:33:35.879Z,4.04
2023-04-03T06:34:38.974Z,4.30
2023-04-03T06:35:41.968Z,4.51
2023-04-03T06:36:46.268Z,4.64
2023-04-03T06:37:49.150Z,4.75
2023-04-03T06:38:52.346Z,4.90
2023-04-03T06:39:55.834Z,5.00
2023-04-03T06:40:59.324Z,5.01
2023-04-03T06:42:02.228Z,5.06
2023-04-03T06:43:11.914Z,5.09
2023-04-03T06:44:16.807Z,5.10
2023-04-03T06:45:20.426Z,5.07
2023-04-03T06:46:23.718Z,5.07
2023-04-03T06:47:27.235Z,5.11
2023-04-03T06:48:30.661Z,5.18
2023-04-03T06:49:33.730Z,5.26
2023-04-03T06:50:36.633Z,5.27
2023-04-03T06:51:39.683Z,5.26
2023-04-03T06:52:42.794Z,5.33
2023-04-03T06:53:46.817Z,5.47
2023-04-03T06:54:49.680Z,5.65
2023-04-03T06:55:52.523Z,5.71
2023-04-03T06:56:55.564Z,5.77
2023-04-03T06:57:58.500Z,5.80
2023-04-03T06:59:02.357Z,5.87
2023-04-03T07:00:07.942Z,5.99
2023-04-03T07:01:11.977Z,6.00
2023-04-03T07:02:15.871Z,6.03
2023-04-03T07:03:19.162Z,6.11
2023-04-03T07:04:22.090Z,6.21
2023-04-03T07:05:25.847Z,6.30
2023-04-03T07:06:28.959Z,6.41
2023-04-03T07:07:31.834Z,6.50
2023-04-03T07:08:35.844Z,6.56
2023-04-03T07:09:38.857Z,6.51
2023-04-03T07:10:41.857Z,6.53
2023-04-03T07:11:44.957Z,6.61
2023-04-03T07:12:47.860Z,6.60
2023-04-03T07:13:51.486Z,6.57
2023-04-03T07:14:54.748Z,6.65
2023-04-03T07:15:58.684Z,6.68
2023-04-03T07:17:04.950Z,6.60
2023-04-03T07:18:07.941Z,6.60
2023-04-03T07:19:10.948Z,6.61
2023-04-03T07:20:14.166Z,6.60
2023-04-03T07:21:17.055Z,6.59
2023-04-03T07:22:19.964Z,6.57
2023-04-03T07:23:23.154Z,6.64
2023-04-03T07:24:26.097Z,6.68
2023-04-03T07:25:29.722Z,6.69
2023-04-03T07:26:32.638Z,6.66
2023-04-03T07:27:35.662Z,6.67
2023-04-03T07:28:39.569Z,6.70
2023-04-03T07:29:42.462Z,6.65
2023-04-03T07:30:51.145Z,6.64
2023-04-03T07:31:54.867Z,6.66
2023-04-03T07:32:57.831Z,6.69
2023-04-03T07:34:00.863Z,6.73
2023-04-03T07:35:04.439Z,6.83
2023-04-03T07:36:08.579Z,6.83
2023-04-03T07:37:11.745Z,6.78
2023-04-03T07:38:14.815Z,6.75
2023-04-03T07:39:17.679Z,6.74
2023-04-03T07:40:20.904Z,6.73
2023-04-03T07:41:24.459Z,6.73
2023-04-03T07:42:30.152Z,6.75
2023-04-03T07:43:33.881Z,6.81
2023-04-03T07:44:37.653Z,6.90
2023-04-03T07:45:40.975Z,6.90
2023-04-03T07:46:44.194Z,6.85
2023-04-03T07:47:47.271Z,6.69
2023-04-03T07:48:50.553Z,6.58
2023-04-03T07:49:53.529Z,6.55
2023-04-03T07:51:02.050Z,6.54
2023-04-03T07:52:05.349Z,6.47
2023-04-03T07:53:08.957Z,6.32
2023-04-03T07:54:12.069Z,6.25
2023-04-03T07:55:15.543Z,6.22
2023-04-03T07:56:18.524Z,6.19
2023-04-03T07:57:21.434Z,6.17
2023-04-03T07:58:24.337Z,6.19
2023-04-03T07:59:27.194Z,6.26
2023-04-03T08:00:30.737Z,6.24
2023-04-03T08:01:34.804Z,6.26
2023-04-03T08:02:38.123Z,6.29
2023-04-03T08:03:41.543Z,6.21
2023-04-03T08:04:44.741Z,6.17
2023-04-03T08:05:49.741Z,6.17
2023-04-03T08:06:53.227Z,6.18
2023-04-03T08:07:56.143Z,6.16
2023-04-03T08:09:00.005Z,6.16
2023-04-03T08:10:02.900Z,6.12
2023-04-03T08:11:07.080Z,6.08
2023-04-03T08:12:12.505Z,6.14
2023-04-03T08:13:15.895Z,6.16
2023-04-03T08:14:19.639Z,6.16
2023-04-03T08:15:23.082Z,6.24
2023-04-03T08:16:28.038Z,6.30
2023-04-03T08:17:31.513Z,6.27
2023-04-03T08:18:34.577Z,6.20
2023-04-03T08:19:37.576Z,6.06
2023-04-03T08:20:41.522Z,5.91
2023-04-03T08:21:45.451Z,5.78
2023-04-03T08:22:48.536Z,5.72
2023-04-03T08:23:52.120Z,5.63
2023-04-03T08:24:59.461Z,5.51
2023-04-03T08:26:11.536Z,5.45
2023-04-03T08:27:14.461Z,5.48
2023-04-03T08:28:17.421Z,5.54
2023-04-03T08:29:20.524Z,5.64
2023-04-03T08:30:23.510Z,5.73
2023-04-03T08:31:26.398Z,5.81
2023-04-03T08:32:29.369Z,5.87
2023-04-03T08:33:32.344Z,5.93
2023-04-03T08:34:36.014Z,6.00
2023-04-03T08:35:41.729Z,6.02
2023-04-03T08:36:44.992Z,5.99
2023-04-03T08:37:47.914Z,5.98
2023-04-03T08:38:52.090Z,6.01
2023-04-03T08:39:55.264Z,6.10
2023-04-03T08:41:05.706Z,6.19
2023-04-03T08:42:20.847Z,6.29
2023-04-03T08:43:48.332Z,6.42
2023-04-03T08:45:10.425Z,6.60
2023-04-03T08:46:17.502Z,6.73
2023-04-03T08:47:25.396Z,6.84
2023-04-03T08:48:34.174Z,6.89
2023-04-03T08:49:48.295Z,6.92
2023-04-03T08:50:57.751Z,6.88
2023-04-03T08:52:05.206Z,6.82
2023-04-03T08:53:19.716Z,6.72
2023-04-03T08:54:32.932Z,6.55
2023-04-03T08:55:51.169Z,6.35
2023-04-03T08:56:54.718Z,6.17
2023-04-03T08:58:06.368Z,6.08
2023-04-03T08:59:15.134Z,5.96
2023-04-03T09:00:23.666Z,5.82
2023-04-03T09:01:36.525Z,5.70
2023-04-03T09:02:48.171Z,5.69
2023-04-03T09:03:52.011Z,5.66
2023-04-03T09:04:55.069Z,5.56
2023-04-03T09:06:23.809Z,5.45
2023-04-03T09:07:40.390Z,5.50
2023-04-03T09:08:59.488Z,5.65
2023-04-03T09:10:04.254Z,5.88
2023-04-03T09:11:32.653Z,5.98
2023-04-03T09:12:40.725Z,6.02
2023-04-03T09:13:58.832Z,5.98
2023-04-03T09:15:35.425Z,5.92
2023-04-03T09:16:59.268Z,5.88
2023-04-03T09:18:36.948Z,5.85
2023-04-03T09:19:50.670Z,5.75
2023-04-03T09:21:20.096Z,5.71
2023-04-03T09:22:27.942Z,5.69
2023-04-03T09:23:37.738Z,5.73
2023-04-03T09:24:41.321Z,5.64
2023-04-03T09:25:44.980Z,5.54
2023-04-03T09:26:54.893Z,5.44
2023-04-03T09:27:57.849Z,5.40
2023-04-03T09:29:06.832Z,5.35
2023-04-03T09:30:25.327Z,5.34
2023-04-03T09:31:35.294Z,5.34
2023-04-03T09:32:38.382Z,5.44
2023-04-03T09:33:42.156Z,5.46
2023-04-03T09:34:46.406Z,5.48
2023-04-03T09:35:50.816Z,5.51
2023-04-03T09:36:56.728Z,5.58
2023-04-03T09:38:15.426Z,5.72
2023-04-03T09:39:20.347Z,5.88
2023-04-03T09:40:26.380Z,6.02
2023-04-03T09:41:29.456Z,6.23
2023-04-03T09:42:33.897Z,6.47
2023-04-03T09:43:39.938Z,6.69
2023-04-03T09:44:43.301Z,6.98
2023-04-03T09:45:48.370Z,7.18
2023-04-03T09:46:51.704Z,7.35
2023-04-03T09:48:17.715Z,7.36
2023-04-03T09:51:17.000Z,7.55
2023-04-03T09:52:30.033Z,7.55
2023-04-03T09:53:40.983Z,7.34
2023-04-03T09:54:43.910Z,7.22
2023-04-03T09:55:47.154Z,7.16
2023-04-03T09:56:52.614Z,7.17
2023-04-03T09:57:59.326Z,7.23
2023-04-03T09:59:04.846Z,7.32
2023-04-03T10:00:22.909Z,7.32
2023-04-03T10:01:37.907Z,7.29
2023-04-03T10:02:43.916Z,7.23
2023-04-03T10:03:47.798Z,7.18
2023-04-03T10:05:02.473Z,7.15
2023-04-03T10:06:25.371Z,7.10
2023-04-03T10:07:46.420Z,7.26
2023-04-03T10:09:05.530Z,7.37
2023-04-03T10:10:23.902Z,7.57
2023-04-03T10:11:27.682Z,7.70
2023-04-03T10:12:31.055Z,7.55
2023-04-03T10:13:38.988Z,7.36
2023-04-03T10:15:01.820Z,7.17
2023-04-03T10:16:10.165Z,7.15
2023-04-03T10:17:24.250Z,7.32
2023-04-03T10:18:36.387Z,7.57
2023-04-03T10:19:48.550Z,7.81
2023-04-03T10:20:55.199Z,7.99
2023-04-03T10:22:10.784Z,8.18
2023-04-03T10:23:23.313Z,8.30
2023-04-03T10:24:37.097Z,8.35
2023-04-03T10:26:14.806Z,8.48
2023-04-03T10:27:22.365Z,8.59
2023-04-03T10:28:42.031Z,8.70
2023-04-03T10:29:56.819Z,8.80
2023-04-03T10:31:07.668Z,8.89
2023-04-03T10:32:32.347Z,8.92
2023-04-03T10:33:53.794Z,8.95
2023-04-03T10:35:33.049Z,8.86
2023-04-03T10:37:25.976Z,8.64
2023-04-03T10:38:40.906Z,8.60
2023-04-03T10:40:02.782Z,8.80
2023-04-03T10:41:23.189Z,8.95
2023-04-03T10:42:49.448Z,9.00
2023-04-03T10:43:57.929Z,8.91
2023-04-03T10:45:06.434Z,8.84
2023-04-03T10:46:19.333Z,8.71
2023-04-03T10:47:34.096Z,8.54
2023-04-03T10:48:50.200Z,8.40
2023-04-03T10:50:27.710Z,8.24
2023-04-03T10:51:47.129Z,7.97
2023-04-03T10:52:59.017Z,7.83
2023-04-03T10:54:27.140Z,7.90
2023-04-03T10:55:36.551Z,8.05
2023-04-03T10:56:39.370Z,8.22
2023-04-03T10:57:42.829Z,8.39
2023-04-03T10:58:59.565Z,8.45
2023-04-03T11:00:10.189Z,8.38
2023-04-03T11:01:20.163Z,8.18
2023-04-03T11:02:33.847Z,7.98
2023-04-03T11:03:42.764Z,7.83
2023-04-03T11:04:53.296Z,7.72
2023-04-03T11:05:56.925Z,7.67
2023-04-03T11:07:11.184Z,7.63
2023-04-03T11:08:34.045Z,7.58
2023-04-03T11:09:42.667Z,7.51
2023-04-03T11:10:52.011Z,7.46
2023-04-03T11:12:06.288Z,7.50
2023-04-03T11:13:24.178Z,7.67
2023-04-03T11:14:31.628Z,7.89
2023-04-03T11:15:34.787Z,7.92
2023-04-03T11:16:53.619Z,7.83
2023-04-03T11:18:09.713Z,7.74
2023-04-03T11:19:24.513Z,7.81
2023-04-03T11:20:34.172Z,7.96
2023-04-03T11:21:57.243Z,8.15
2023-04-03T11:23:22.096Z,8.36
2023-04-03T11:24:32.659Z,8.48
2023-04-03T11:25:38.766Z,8.56
2023-04-03T11:26:43.603Z,8.52
2023-04-03T11:27:56.028Z,8.48
2023-04-03T11:29:07.019Z,8.39
2023-04-03T11:30:24.662Z,8.33
2023-04-03T11:31:27.775Z,8.28
2023-04-03T11:32:39.452Z,8.26
2023-04-03T11:34:37.418Z,8.20
2023-04-03T11:35:47.251Z,8.09
2023-04-03T11:36:51.825Z,8.09
2023-04-03T11:37:55.326Z,8.08
2023-04-03T11:39:00.390Z,8.07
2023-04-03T11:40:10.390Z,8.03
2023-04-03T11:41:14.834Z,7.95
2023-04-03T11:42:23.647Z,7.95
2023-04-03T11:43:27.971Z,8.04
2023-04-03T11:44:35.685Z,8.27
2023-04-03T11:45:51.061Z,8.49
2023-04-03T11:46:57.533Z,8.65
2023-04-03T11:48:20.861Z,8.64
2023-04-03T11:49:45.025Z,8.56
2023-04-03T11:50:48.913Z,8.66
2023-04-03T11:51:52.130Z,8.87
2023-04-03T11:52:56.735Z,9.07
2023-04-03T11:54:19.463Z,9.24
2023-04-03T12:01:00.416Z,9.25
2023-04-03T12:02:04.731Z,8.95
2023-04-03T12:03:27.733Z,8.79
2023-04-03T12:04:31.653Z,8.71
2023-04-03T12:06:48.358Z,8.63
2023-04-03T12:08:31.497Z,8.69
2023-04-03T12:09:56.557Z,8.94
2023-04-03T12:11:14.976Z,9.22
2023-04-03T12:12:39.685Z,9.42
2023-04-03T12:13:52.071Z,9.54
2023-04-03T12:14:55.041Z,9.73
2023-04-03T12:16:01.035Z,9.79
2023-04-03T12:17:04.629Z,9.78
2023-04-03T12:18:42.782Z,9.69
2023-04-03T12:19:47.586Z,9.53
2023-04-03T12:20:53.314Z,9.41
2023-04-03T12:21:58.588Z,9.59
2023-04-03T12:23:35.782Z,9.78
2023-04-03T12:24:43.423Z,9.94
2023-04-03T12:25:52.073Z,9.95
2023-04-03T12:27:01.189Z,9.93
2023-04-03T12:28:07.023Z,9.87
2023-04-03T12:29:23.093Z,9.71
2023-04-03T12:30:31.858Z,9.49
2023-04-03T12:31:47.222Z,9.37
2023-04-03T12:33:09.566Z,9.27
2023-04-03T12:34:27.892Z,9.36
2023-04-03T12:35:32.678Z,9.68
2023-04-03T12:36:45.033Z,9.82
2023-04-03T12:38:21.736Z,9.85
2023-04-03T12:39:50.456Z,9.75
2023-04-03T12:41:23.777Z,9.63
2023-04-03T12:42:37.409Z,9.52
2023-04-03T12:43:45.142Z,9.58
2023-04-03T12:45:03.288Z,9.56
2023-04-03T12:46:17.430Z,9.70
2023-04-03T12:47:24.182Z,9.90
2023-04-03T12:48:31.054Z,10.15
2023-04-03T12:49:40.729Z,10.42
2023-04-03T12:50:47.719Z,10.65
2023-04-03T12:51:51.185Z,10.85
2023-04-03T12:53:12.911Z,10.98
2023-04-03T12:54:36.109Z,11.15
2023-04-03T12:55:39.374Z,11.15
2023-04-03T12:56:42.576Z,11.04
2023-04-03T12:57:45.888Z,10.92
2023-04-03T12:58:50.654Z,10.79
2023-04-03T12:59:53.624Z,10.59
2023-04-03T13:01:12.610Z,10.33
2023-04-03T13:02:22.321Z,10.00
2023-04-03T13:03:31.141Z,9.73
2023-04-03T13:04:34.422Z,9.54
2023-04-03T13:05:38.265Z,9.40
2023-04-03T13:06:45.515Z,9.30
2023-04-03T13:08:00.491Z,9.26
2023-04-03T13:09:05.307Z,9.12
2023-04-03T13:10:08.854Z,9.03
2023-04-03T13:11:13.047Z,8.91
2023-04-03T13:12:17.328Z,8.76
2023-04-03T13:13:20.814Z,8.65
2023-04-03T13:14:26.520Z,8.55
2023-04-03T13:15:40.636Z,8.58
2023-04-03T13:17:13.868Z,8.63
2023-04-03T13:18:28.644Z,8.66
2023-04-03T13:19:32.206Z,8.72
2023-04-03T13:20:37.573Z,8.73
2023-04-03T13:21:40.722Z,8.73
2023-04-03T13:23:00.819Z,8.74
2023-04-03T13:24:14.905Z,8.69
2023-04-03T13:25:20.967Z,8.67
2023-04-03T13:26:27.148Z,8.58
2023-04-03T13:27:32.304Z,8.50
2023-04-03T13:28:37.037Z,8.40
2023-04-03T13:29:40.970Z,8.30
2023-04-03T13:31:02.867Z,8.21
2023-04-03T13:32:07.492Z,8.17
2023-04-03T13:33:25.998Z,8.19
2023-04-03T13:34:37.760Z,8.11
2023-04-03T13:35:42.914Z,8.08
2023-04-03T13:36:57.674Z,8.06
2023-04-03T13:38:06.672Z,8.06
2023-04-03T13:39:12.072Z,8.04
2023-04-03T13:41:42.368Z,8.21
2023-04-03T13:42:46.169Z,8.28
2023-04-03T13:43:50.720Z,8.32
2023-04-03T13:45:21.676Z,8.27
2023-04-03T13:46:28.758Z,8.21
2023-04-03T13:47:40.966Z,8.23
2023-04-03T13:48:52.560Z,8.19
2023-04-03T13:50:14.036Z,8.18
2023-04-03T13:51:16.936Z,8.12
2023-04-03T13:52:37.015Z,8.17
2023-04-03T13:53:49.147Z,8.11
2023-04-03T13:54:55.942Z,8.08
2023-04-03T13:56:08.669Z,8.12
2023-04-03T13:57:15.968Z,8.07
2023-04-03T13:58:54.823Z,8.04
2023-04-03T13:59:58.091Z,7.94
2023-04-03T14:01:19.648Z,7.91
2023-04-03T14:02:34.430Z,7.86
2023-04-03T14:04:02.065Z,7.87
2023-04-03T14:05:09.331Z,7.75
2023-04-03T14:06:16.572Z,7.74
2023-04-03T14:07:22.336Z,7.76
2023-04-03T14:08:39.728Z,7.79
2023-04-03T14:09:45.679Z,7.77
2023-04-03T14:10:50.813Z,7.79
2023-04-03T14:11:58.757Z,7.87
2023-04-03T14:13:01.661Z,7.84
2023-04-03T14:14:14.091Z,7.78
2023-04-03T14:15:32.742Z,7.70
2023-04-03T14:16:41.971Z,7.68
2023-04-03T14:17:45.215Z,7.64
2023-04-03T14:18:49.326Z,7.56
2023-04-03T14:19:53.236Z,7.52
2023-04-03T14:20:56.243Z,7.47
2023-04-03T14:22:01.342Z,7.41
2023-04-03T14:23:04.211Z,7.36
2023-04-03T14:24:08.142Z,7.33
2023-04-03T14:25:11.276Z,7.28
2023-04-03T14:26:32.121Z,7.26
2023-04-03T14:27:41.293Z,7.23
2023-04-03T14:28:46.227Z,7.21
2023-04-03T14:29:50.483Z,7.21
2023-04-03T14:30:53.873Z,7.16
2023-04-03T14:32:11.619Z,7.12
2023-04-03T14:33:22.973Z,7.05
2023-04-03T14:34:25.944Z,6.98
2023-04-03T14:35:29.009Z,6.95
2023-04-03T14:36:32.747Z,6.88
2023-04-03T14:37:36.513Z,6.82
2023-04-03T14:38:39.494Z,6.76
2023-04-03T14:39:43.186Z,6.73
2023-04-03T14:40:46.070Z,6.73
2023-04-03T14:41:49.014Z,6.73
2023-04-03T14:42:52.780Z,6.73
2023-04-03T14:43:56.494Z,6.72
2023-04-03T14:45:01.369Z,6.69
2023-04-03T14:46:04.522Z,6.67
2023-04-03T14:47:14.333Z,6.65
2023-04-03T14:48:32.282Z,6.63
2023-04-03T14:49:35.694Z,6.60
2023-04-03T14:50:38.770Z,6.56
2023-04-03T14:51:41.868Z,6.56
2023-04-03T14:52:45.194Z,6.53
2023-04-03T14:53:50.248Z,6.54
2023-04-03T14:54:55.124Z,6.54
2023-04-03T14:55:58.375Z,6.52
2023-04-03T14:57:03.005Z,6.54
2023-04-03T14:58:06.070Z,6.50
2023-04-03T14:59:12.856Z,6.51